createdAt,value
2022-11-02T00:00:43.793Z,11.11
2022-11-02T00:03:17.427Z,11.29
2022-11-02T00:05:50.289Z,11.35
2022-11-02T00:08:24.431Z,11.44
2022-11-02T00:10:59.488Z,11.23
2022-11-02T00:13:33.464Z,10.95
2022-11-02T00:16:10.811Z,11.28
2022-11-02T00:18:46.657Z,11.28
2022-11-02T00:21:23.004Z,11.33
2022-11-02T00:24:00.053Z,11.47
2022-11-02T00:26:37.035Z,11.59
2022-11-02T00:29:11.005Z,11.54
2022-11-02T00:31:44.570Z,11.32
2022-11-02T00:34:18.481Z,11.31
2022-11-02T00:36:55.434Z,11.18
2022-11-02T00:39:30.678Z,11.19
2022-11-02T00:42:05.144Z,10.97
2022-11-02T00:44:38.984Z,10.92
2022-11-02T00:47:13.140Z,11.06
2022-11-02T00:49:47.288Z,11.01
2022-11-02T00:52:21.132Z,10.93
2022-11-02T00:54:53.980Z,11.12
2022-11-02T00:57:28.972Z,10.98
2022-11-02T01:00:02.965Z,10.93
2022-11-02T01:02:36.868Z,10.88
2022-11-02T01:05:11.489Z,10.86
2022-11-02T01:07:44.376Z,10.74
2022-11-02T01:10:17.356Z,10.83
2022-11-02T01:12:52.633Z,10.73
2022-11-02T01:15:26.455Z,10.69
2022-11-02T01:18:00.172Z,10.97
2022-11-02T01:20:34.209Z,10.85
2022-11-02T01:23:08.183Z,10.77
2022-11-02T01:25:47.204Z,10.86
2022-11-02T01:28:22.497Z,10.80
2022-11-02T01:30:56.262Z,10.83
2022-11-02T01:33:29.896Z,10.54
2022-11-02T01:36:05.843Z,10.44
2022-11-02T01:38:38.698Z,10.57
2022-11-02T01:41:14.228Z,10.71
2022-11-02T01:43:53.228Z,10.42
2022-11-02T01:46:34.773Z,10.64
2022-11-02T01:49:14.101Z,10.46
2022-11-02T01:51:53.219Z,10.49
2022-11-02T01:54:31.864Z,10.49
2022-11-02T01:57:07.992Z,10.52
2022-11-02T01:59:46.863Z,10.68
2022-11-02T02:02:23.707Z,10.35
2022-11-02T02:05:04.019Z,10.74
2022-11-02T02:07:40.930Z,10.54
2022-11-02T02:10:14.663Z,10.53
2022-11-02T02:12:49.615Z,10.63
2022-11-02T02:15:29.702Z,10.61
2022-11-02T02:18:09.347Z,10.53
2022-11-02T02:21:10.613Z,10.51
2022-11-02T02:24:13.297Z,10.60
2022-11-02T02:27:07.459Z,10.43
2022-11-02T02:29:52.034Z,10.42
2022-11-02T02:32:32.608Z,10.54
2022-11-02T02:35:17.046Z,10.55
2022-11-02T02:37:57.256Z,10.45
2022-11-02T02:40:36.871Z,10.56
2022-11-02T02:43:14.623Z,10.42
2022-11-02T02:45:55.742Z,10.77
2022-11-02T02:48:29.895Z,10.75
2022-11-02T02:51:08.064Z,10.50
2022-11-02T02:53:44.696Z,10.63
2022-11-02T02:56:23.185Z,10.78
2022-11-02T02:59:01.154Z,10.59
2022-11-02T03:01:37.326Z,10.80
2022-11-02T03:04:13.445Z,10.62
2022-11-02T03:06:52.241Z,10.49
2022-11-02T03:09:33.567Z,10.59
2022-11-02T03:12:25.078Z,10.50
2022-11-02T03:15:11.496Z,10.67
2022-11-02T03:18:00.657Z,10.44
2022-11-02T03:20:49.720Z,10.48
2022-11-02T03:23:29.422Z,10.53
2022-11-02T03:26:08.651Z,10.46
2022-11-02T03:28:57.312Z,10.42
2022-11-02T03:31:39.121Z,10.24
2022-11-02T03:34:25.922Z,10.33
2022-11-02T03:37:05.797Z,10.30
2022-11-02T03:39:43.888Z,10.44
2022-11-02T03:42:20.588Z,10.11
2022-11-02T03:44:59.897Z,10.33
2022-11-02T03:47:38.091Z,10.40
2022-11-02T03:50:15.623Z,10.45
2022-11-02T03:52:53.612Z,10.52
2022-11-02T03:55:32.074Z,10.40
2022-11-02T03:58:06.231Z,10.48
2022-11-02T04:00:47.551Z,10.52
2022-11-02T04:03:24.144Z,10.41
2022-11-02T04:05:59.460Z,10.65
2022-11-02T04:08:36.740Z,10.42
2022-11-02T04:11:27.503Z,10.46
2022-11-02T04:14:18.395Z,10.56
2022-11-02T04:17:12.170Z,10.39
2022-11-02T04:19:48.684Z,10.62
2022-11-02T04:22:42.606Z,10.45
2022-11-02T04:25:18.845Z,10.33
2022-11-02T04:27:54.275Z,10.44
2022-11-02T04:30:28.155Z,10.55
2022-11-02T04:33:19.203Z,10.54
2022-11-02T04:35:52.563Z,10.51
2022-11-02T04:38:41.837Z,10.47
2022-11-02T04:41:34.336Z,10.64
2022-11-02T04:44:08.743Z,10.58
2022-11-02T04:46:43.937Z,10.42
2022-11-02T04:49:17.691Z,10.51
2022-11-02T04:51:51.315Z,10.43
2022-11-02T04:54:26.452Z,10.51
2022-11-02T04:57:00.160Z,10.23
2022-11-02T04:59:33.518Z,10.18
2022-11-02T05:02:07.326Z,10.36
2022-11-02T05:04:41.255Z,10.23
2022-11-02T05:07:15.134Z,10.10
2022-11-02T05:09:50.284Z,10.15
2022-11-02T05:12:28.930Z,10.16
2022-11-02T05:15:05.179Z,10.15
2022-11-02T05:17:39.073Z,10.31
2022-11-02T05:20:13.531Z,10.27
2022-11-02T05:22:47.540Z,10.35
2022-11-02T05:25:21.754Z,10.33
2022-11-02T05:27:58.951Z,10.30
2022-11-02T05:30:32.702Z,10.15
2022-11-02T05:33:06.748Z,10.33
2022-11-02T05:35:40.838Z,10.17
2022-11-02T05:38:14.962Z,10.38
2022-11-02T05:40:55.252Z,10.20
2022-11-02T05:43:29.313Z,10.28
2022-11-02T05:46:04.296Z,10.48
2022-11-02T05:48:37.939Z,10.56
2022-11-02T05:51:12.250Z,10.40
2022-11-02T05:53:45.125Z,10.57
2022-11-02T05:56:24.581Z,10.40
2022-11-02T05:58:58.879Z,10.52
2022-11-02T06:01:32.495Z,10.37
2022-11-02T06:04:06.630Z,10.19
2022-11-02T06:06:40.644Z,10.38
2022-11-02T06:09:14.329Z,10.45
2022-11-02T06:11:49.545Z,10.43
2022-11-02T06:14:23.281Z,10.43
2022-11-02T06:16:57.038Z,10.42
2022-11-02T06:19:30.790Z,10.29
2022-11-02T06:22:04.605Z,10.35
2022-11-02T06:24:38.314Z,10.26
2022-11-02T06:27:13.574Z,10.21
2022-11-02T06:29:47.591Z,10.07
2022-11-02T06:32:21.306Z,10.08
2022-11-02T06:34:54.604Z,10.19
2022-11-02T06:37:28.460Z,10.35
2022-11-02T06:40:02.342Z,10.36
2022-11-02T06:42:44.829Z,10.32
2022-11-02T06:45:24.488Z,10.18
2022-11-02T06:47:58.368Z,10.02
2022-11-02T06:50:32.351Z,9.93
2022-11-02T06:53:06.594Z,10.00
2022-11-02T06:55:40.788Z,10.10
2022-11-02T06:58:15.142Z,10.13
2022-11-02T07:00:48.782Z,10.18
2022-11-02T07:03:22.591Z,10.07
2022-11-02T07:05:56.403Z,10.27
2022-11-02T07:08:29.752Z,10.28
2022-11-02T07:11:03.834Z,10.42
2022-11-02T07:13:38.520Z,10.23
2022-11-02T07:16:12.037Z,10.44
2022-11-02T07:18:45.663Z,10.50
2022-11-02T07:23:56.377Z,10.76
2022-11-02T07:26:30.022Z,10.80
2022-11-02T07:29:05.621Z,11.02
2022-11-02T07:31:39.294Z,11.22
2022-11-02T07:34:16.895Z,11.12
2022-11-02T07:36:50.861Z,11.43
2022-11-02T07:39:24.850Z,11.50
2022-11-02T07:41:58.496Z,11.30
2022-11-02T07:44:33.788Z,11.07
2022-11-02T07:47:07.384Z,11.28
2022-11-02T07:49:41.207Z,11.23
2022-11-02T07:52:15.039Z,11.58
2022-11-02T07:54:49.045Z,11.75
2022-11-02T07:57:21.874Z,11.56
2022-11-02T07:59:57.096Z,11.38
2022-11-02T08:02:30.057Z,11.69
2022-11-02T08:05:03.967Z,11.61
2022-11-02T08:07:37.627Z,11.56
2022-11-02T08:10:10.973Z,11.45
2022-11-02T08:12:44.860Z,11.83
2022-11-02T08:15:20.124Z,11.98
2022-11-02T08:18:02.616Z,11.94
2022-11-02T08:20:37.933Z,11.79
2022-11-02T08:23:12.227Z,12.16
2022-11-02T08:25:47.687Z,12.23
2022-11-02T08:28:24.376Z,12.18
2022-11-02T08:31:00.289Z,12.14
2022-11-02T08:33:33.911Z,12.27
2022-11-02T08:36:08.353Z,12.27
2022-11-02T08:38:42.619Z,12.04
2022-11-02T08:41:16.863Z,12.38
2022-11-02T08:43:50.373Z,12.57
2022-11-02T08:46:24.659Z,12.38
2022-11-02T08:48:58.324Z,12.80
2022-11-02T08:51:32.378Z,12.77
2022-11-02T08:54:06.296Z,12.91
2022-11-02T08:56:39.302Z,12.89
2022-11-02T08:59:12.480Z,12.85
2022-11-02T09:01:47.897Z,12.88
2022-11-02T09:04:21.216Z,12.65
2022-11-02T09:06:54.920Z,13.03
2022-11-02T09:09:28.589Z,12.63
2022-11-02T09:12:01.799Z,12.90
2022-11-02T09:14:35.023Z,12.82
2022-11-02T09:17:09.408Z,12.70
2022-11-02T09:19:43.077Z,12.94
2022-11-02T09:22:16.982Z,12.86
2022-11-02T09:24:49.876Z,12.72
2022-11-02T09:27:23.546Z,13.07
2022-11-02T09:29:56.777Z,12.98
2022-11-02T09:32:33.933Z,13.17
2022-11-02T09:35:09.964Z,13.27
2022-11-02T09:37:50.896Z,13.47
2022-11-02T09:40:26.528Z,13.66
2022-11-02T09:43:11.657Z,13.75
2022-11-02T09:45:54.558Z,13.84
2022-11-02T09:48:35.716Z,13.88
2022-11-02T09:51:12.701Z,13.73
2022-11-02T09:53:55.314Z,13.65
2022-11-02T09:56:30.634Z,13.60
2022-11-02T09:59:07.873Z,13.56
2022-11-02T10:01:55.443Z,13.58
2022-11-02T10:05:13.193Z,13.56
2022-11-02T10:08:22.086Z,13.68
2022-11-02T10:11:08.519Z,13.75
2022-11-02T10:13:50.103Z,13.37
2022-11-02T10:16:30.888Z,13.62
2022-11-02T10:19:07.747Z,13.92
2022-11-02T10:21:42.415Z,13.87
2022-11-02T10:24:25.394Z,14.04
2022-11-02T10:27:13.063Z,13.84
2022-11-02T10:29:59.038Z,13.98
2022-11-02T10:32:39.353Z,14.09
2022-11-02T10:35:37.112Z,13.91
2022-11-02T10:38:23.708Z,14.01
2022-11-02T10:41:14.795Z,13.66
2022-11-02T10:44:04.462Z,13.83
2022-11-02T10:46:50.373Z,13.82
2022-11-02T10:49:43.233Z,14.10
2022-11-02T10:52:17.933Z,14.03
2022-11-02T10:54:51.078Z,14.21
2022-11-02T10:57:26.939Z,14.10
2022-11-02T11:00:25.917Z,14.25
2022-11-02T11:03:11.247Z,14.22
2022-11-02T11:06:00.513Z,14.12
2022-11-02T11:08:39.820Z,14.24
2022-11-02T11:11:24.500Z,14.12
2022-11-02T11:19:55.197Z,14.60
2022-11-02T11:22:33.176Z,14.51
2022-11-02T11:25:27.513Z,14.59
2022-11-02T11:28:01.812Z,14.09
2022-11-02T11:30:59.089Z,14.32
2022-11-02T11:33:33.900Z,14.58
2022-11-02T11:36:07.340Z,14.18
2022-11-02T11:38:49.133Z,14.18
2022-11-02T11:41:22.821Z,14.36
2022-11-02T11:43:56.332Z,14.63
2022-11-02T11:46:43.690Z,14.72
2022-11-02T11:49:36.069Z,14.48
2022-11-02T11:52:29.907Z,14.53
2022-11-02T11:55:21.704Z,14.74
2022-11-02T11:58:08.345Z,15.01
2022-11-02T12:00:41.409Z,15.25
2022-11-02T12:03:16.441Z,15.21
2022-11-02T12:06:03.007Z,15.04
2022-11-02T12:08:46.170Z,15.04
2022-11-02T12:11:37.858Z,15.38
2022-11-02T12:14:33.879Z,15.10
2022-11-02T12:17:35.724Z,15.62
2022-11-02T12:20:34.272Z,15.68
2022-11-02T12:23:18.519Z,15.53
2022-11-02T12:25:55.574Z,15.73
2022-11-02T12:28:38.931Z,15.66
2022-11-02T12:31:23.036Z,15.57
2022-11-02T12:34:20.143Z,15.70
2022-11-02T12:40:16.503Z,16.37
2022-11-02T12:42:59.188Z,16.15
2022-11-02T12:45:47.246Z,15.99
2022-11-02T12:48:31.712Z,16.06
2022-11-02T12:51:11.366Z,15.99
2022-11-02T12:53:52.305Z,16.08
2022-11-02T12:56:32.143Z,15.77
2022-11-02T12:59:05.168Z,16.14
2022-11-02T13:01:41.869Z,16.28
2022-11-02T13:04:25.988Z,15.88
2022-11-02T13:07:05.627Z,16.13
2022-11-02T13:09:51.331Z,16.19
2022-11-02T13:12:26.677Z,16.01
2022-11-02T13:15:02.101Z,16.22
2022-11-02T13:17:41.782Z,16.20
2022-11-02T13:20:20.284Z,16.06
2022-11-02T13:22:59.256Z,16.14
2022-11-02T13:25:38.596Z,16.04
2022-11-02T13:28:17.628Z,16.22
2022-11-02T13:30:51.938Z,16.12
2022-11-02T13:33:31.402Z,16.20
2022-11-02T13:36:05.672Z,16.04
2022-11-02T13:38:45.660Z,16.18
2022-11-02T13:41:41.553Z,16.41
2022-11-02T13:44:44.058Z,16.55
2022-11-02T13:47:38.395Z,16.46
2022-11-02T13:50:14.407Z,16.31
2022-11-02T13:52:51.609Z,15.97
2022-11-02T13:55:27.294Z,16.56
2022-11-02T13:58:02.137Z,16.37
2022-11-02T14:00:42.251Z,16.48
2022-11-02T14:03:19.286Z,16.56
2022-11-02T14:05:57.721Z,16.37
2022-11-02T14:08:37.087Z,16.43
2022-11-02T14:11:35.727Z,16.40
2022-11-02T14:14:24.404Z,16.52
2022-11-02T14:17:14.528Z,16.46
2022-11-02T14:19:56.412Z,16.30
2022-11-02T14:22:31.236Z,16.08
2022-11-02T14:25:18.647Z,16.35
2022-11-02T14:27:55.226Z,16.61
2022-11-02T14:30:45.492Z,16.56
2022-11-02T14:33:46.480Z,15.84
2022-11-02T14:36:40.219Z,15.35
2022-11-02T14:39:21.060Z,15.16
2022-11-02T14:42:16.471Z,15.43
2022-11-02T14:45:30.889Z,15.34
2022-11-02T14:48:08.506Z,15.63
2022-11-02T14:50:42.448Z,15.49
2022-11-02T14:53:26.841Z,15.55
2022-11-02T14:56:00.775Z,15.77
2022-11-02T14:58:38.935Z,15.81
2022-11-02T15:01:17.249Z,15.89
2022-11-02T15:03:52.172Z,15.76
2022-11-02T15:06:27.224Z,15.80
2022-11-02T15:09:04.281Z,16.00
2022-11-02T15:11:49.579Z,16.11
2022-11-02T15:14:55.885Z,16.18
2022-11-02T15:18:15.097Z,16.34
2022-11-02T15:21:24.266Z,16.34
2022-11-02T15:24:05.824Z,16.19
2022-11-02T15:26:46.944Z,16.12
2022-11-02T15:29:36.510Z,15.85
2022-11-02T15:32:22.302Z,16.21
2022-11-02T15:34:58.788Z,15.52
2022-11-02T15:37:50.288Z,15.74
2022-11-02T15:40:31.396Z,15.90
2022-11-02T15:43:20.380Z,15.35
2022-11-02T15:46:09.108Z,15.60
2022-11-02T15:48:53.143Z,15.81
2022-11-02T15:51:37.018Z,15.66
2022-11-02T15:54:25.234Z,15.79
2022-11-02T15:57:12.602Z,15.91
2022-11-02T16:00:12.746Z,15.83
2022-11-02T16:02:48.714Z,15.76
2022-11-02T16:05:25.336Z,15.91
2022-11-02T16:08:15.356Z,15.72
2022-11-02T16:10:50.515Z,15.62
2022-11-02T16:13:23.955Z,15.72
2022-11-02T16:16:06.350Z,15.51
2022-11-02T16:18:41.483Z,15.61
2022-11-02T16:21:17.278Z,15.24
2022-11-02T16:23:53.619Z,15.21
2022-11-02T16:26:30.656Z,15.29
2022-11-02T16:29:09.227Z,14.79
2022-11-02T16:31:42.194Z,14.70
2022-11-02T16:34:22.753Z,14.73
2022-11-02T16:36:56.653Z,14.75
2022-11-02T16:39:34.553Z,14.40
2022-11-02T16:42:18.229Z,14.29
2022-11-02T16:44:58.224Z,14.34
2022-11-02T16:47:38.202Z,14.25
2022-11-02T16:50:29.638Z,14.07
2022-11-02T16:53:03.342Z,13.91
2022-11-02T16:55:39.003Z,13.85
2022-11-02T16:58:19.255Z,13.97
2022-11-02T17:01:00.804Z,13.70
2022-11-02T17:03:35.813Z,14.09
2022-11-02T17:06:08.961Z,14.09
2022-11-02T17:08:45.919Z,13.96
2022-11-02T17:11:19.723Z,14.07
2022-11-02T17:13:56.884Z,13.93
2022-11-02T17:16:35.271Z,14.03
2022-11-02T17:19:46.672Z,14.08
2022-11-02T17:22:26.989Z,14.34
2022-11-02T17:25:13.496Z,14.40
2022-11-02T17:27:46.568Z,14.53
2022-11-02T17:30:44.358Z,14.40
2022-11-02T17:33:26.459Z,14.49
2022-11-02T17:36:06.394Z,14.41
2022-11-02T17:38:40.544Z,14.66
2022-11-02T17:41:34.518Z,14.66
2022-11-02T17:44:17.085Z,14.63
2022-11-02T17:46:51.248Z,14.59
2022-11-02T17:49:24.061Z,14.67
2022-11-02T17:51:56.923Z,14.78
2022-11-02T17:54:31.670Z,14.80
2022-11-02T17:57:09.736Z,14.70
2022-11-02T17:59:42.652Z,15.24
2022-11-02T18:02:17.312Z,14.83
2022-11-02T18:04:50.425Z,15.05
2022-11-02T18:07:23.967Z,14.97
2022-11-02T18:09:56.830Z,15.23
2022-11-02T18:12:29.616Z,15.27
2022-11-02T18:15:03.613Z,15.29
2022-11-02T18:17:38.583Z,15.29
2022-11-02T18:20:13.873Z,15.38
2022-11-02T18:22:47.849Z,15.43
2022-11-02T18:25:22.128Z,15.39
2022-11-02T18:27:56.228Z,15.52
2022-11-02T18:30:32.751Z,15.52
2022-11-02T18:33:12.281Z,15.36
2022-11-02T18:35:47.636Z,15.44
2022-11-02T18:38:22.121Z,15.17
2022-11-02T18:40:55.978Z,15.44
2022-11-02T18:43:29.527Z,15.48
2022-11-02T18:46:03.251Z,15.47
2022-11-02T18:48:38.368Z,15.53
2022-11-02T18:51:12.378Z,15.45
2022-11-02T18:53:45.359Z,15.71
2022-11-02T18:56:21.380Z,15.61
2022-11-02T18:58:56.058Z,15.37
2022-11-02T19:01:30.430Z,15.55
2022-11-02T19:04:05.907Z,15.51
2022-11-02T19:06:56.468Z,15.42
2022-11-02T19:09:31.572Z,15.39
2022-11-02T19:12:11.393Z,15.45
2022-11-02T19:14:46.876Z,15.47
2022-11-02T19:17:20.918Z,15.31
2022-11-02T19:19:56.030Z,15.48
2022-11-02T19:22:29.532Z,15.38
2022-11-02T19:25:03.083Z,15.28
2022-11-02T19:27:36.797Z,15.34
2022-11-02T19:30:11.245Z,15.27
2022-11-02T19:32:44.996Z,15.39
2022-11-02T19:35:20.127Z,15.21
2022-11-02T19:37:58.084Z,15.17
2022-11-02T19:40:31.738Z,15.45
2022-11-02T19:43:05.549Z,15.28
2022-11-02T19:45:39.304Z,15.22
2022-11-02T19:48:12.973Z,15.28
2022-11-02T19:50:47.952Z,15.28
2022-11-02T19:53:21.576Z,15.53
2022-11-02T19:55:55.542Z,15.55
2022-11-02T19:58:29.163Z,15.59
2022-11-02T20:01:08.244Z,15.32
2022-11-02T20:03:42.253Z,15.19
2022-11-02T20:06:19.234Z,15.24
2022-11-02T20:08:53.133Z,15.45
2022-11-02T20:11:28.866Z,15.42
2022-11-02T20:14:05.433Z,15.56
2022-11-02T20:16:38.980Z,15.40
2022-11-02T20:19:12.664Z,15.11
2022-11-02T20:21:47.822Z,15.29
2022-11-02T20:24:21.611Z,15.55
2022-11-02T20:26:59.133Z,15.29
2022-11-02T20:29:33.109Z,15.10
2022-11-02T20:32:10.422Z,15.17
2022-11-02T20:34:44.104Z,15.41
2022-11-02T20:37:19.183Z,15.41
2022-11-02T20:39:52.991Z,15.20
2022-11-02T20:42:26.743Z,15.59
2022-11-02T20:44:59.589Z,15.37
2022-11-02T20:47:32.763Z,15.43
2022-11-02T20:50:09.085Z,15.25
2022-11-02T20:52:47.446Z,14.96
2022-11-02T20:55:21.123Z,14.52
2022-11-02T20:57:54.775Z,14.01
2022-11-02T21:00:27.617Z,13.89
2022-11-02T21:03:01.363Z,13.99
2022-11-02T21:05:35.198Z,13.97
2022-11-02T21:08:11.111Z,13.96
2022-11-02T21:10:45.464Z,13.95
2022-11-02T21:13:35.628Z,13.86
2022-11-02T21:16:09.687Z,13.93
2022-11-02T21:18:44.541Z,13.92
2022-11-02T21:21:20.910Z,14.22
2022-11-02T21:23:57.630Z,14.18
2022-11-02T21:26:31.314Z,14.28
2022-11-02T21:29:04.131Z,14.39
2022-11-02T21:31:37.843Z,14.07
2022-11-02T21:34:11.520Z,14.27
2022-11-02T21:36:45.211Z,13.97
2022-11-02T21:39:19.415Z,14.34
2022-11-02T21:41:53.098Z,14.31
2022-11-02T21:44:27.023Z,14.49
2022-11-02T21:47:00.803Z,14.58
2022-11-02T21:49:34.133Z,14.37
2022-11-02T21:52:08.629Z,14.47
2022-11-02T21:54:45.156Z,14.30
2022-11-02T21:57:19.490Z,14.51
2022-11-02T21:59:53.840Z,14.18
2022-11-02T22:02:29.281Z,14.39
2022-11-02T22:05:03.634Z,13.96
2022-11-02T22:07:58.106Z,14.28
2022-11-02T22:10:34.357Z,14.12
2022-11-02T22:13:27.033Z,14.37
2022-11-02T22:16:09.072Z,13.86
2022-11-02T22:18:44.152Z,13.77
2022-11-02T22:21:19.598Z,14.12
2022-11-02T22:23:54.546Z,14.08
2022-11-02T22:26:31.875Z,14.12
2022-11-02T22:29:06.668Z,14.05
2022-11-02T22:31:42.184Z,14.28
2022-11-02T22:34:17.576Z,14.33
2022-11-02T22:36:51.445Z,13.93
2022-11-02T22:39:23.480Z,14.12
2022-11-02T22:41:58.642Z,13.96
2022-11-02T22:44:32.455Z,14.19
2022-11-02T22:47:06.335Z,13.85
2022-11-02T22:49:40.091Z,14.08
2022-11-02T22:52:13.634Z,14.10
2022-11-02T22:54:46.466Z,13.93
2022-11-02T22:57:21.449Z,13.87
2022-11-02T22:59:54.330Z,13.95
2022-11-02T23:02:27.189Z,13.61
2022-11-02T23:05:00.969Z,14.05
2022-11-02T23:07:33.761Z,13.99
2022-11-02T23:10:28.746Z,14.07
2022-11-02T23:13:02.768Z,13.91
2022-11-02T23:15:37.161Z,13.92
2022-11-02T23:18:09.964Z,14.01
2022-11-02T23:20:41.983Z,13.98
2022-11-02T23:23:32.859Z,13.87
2022-11-02T23:26:07.066Z,14.10
2022-11-02T23:28:59.489Z,14.01
2022-11-02T23:31:50.414Z,13.56
2022-11-02T23:34:23.347Z,13.98
2022-11-02T23:36:56.101Z,13.62
2022-11-02T23:39:46.989Z,13.83
2022-11-02T23:42:20.694Z,13.94
2022-11-02T23:44:55.986Z,13.79
2022-11-02T23:47:50.205Z,13.53
2022-11-02T23:52:32.421Z,13.81
2022-11-02T23:55:24.046Z,13.85
2022-11-02T23:57:57.621Z,13.78
